Erlanger, Kentucky
Current Conditions -  °F | °C
As of 4:52 PM on Sunday 21 Dec 2014 (Local Time) from KCVG Reporting Station
Broken Clouds Broken Clouds  
Wind Chill: 29°   Ceiling: 25000
Heat Index: 34°   Visibility: 8mi
Dew Point: 24°   Wind: 6mph
Humidity: 67%   Direction: 90°E
Pressure: 30.17"   Gusts: NA
Location:  39.02°N, 84.61°W
Report Text: KCVG 212152Z 09005KT 8SM SCT200 BKN250 01/M04 A3017 RMK AO2 SLP223 T00111044
Loading
Personal Weather Stations






























Interactive Weather Map New forecast layout! Learn more

10-Day Weather Forecast

Advertisements
Track Severe Weather on mobile